sensor_id;sensor_type;location;lat;lon;timestamp;P1;durP1;ratioP1;P2;durP2;ratioP2
37231;SDS011;23125;48.156;15.954;2022-08-25T00:01:39;7.90;;;4.18;;
37231;SDS011;23125;48.156;15.954;2022-08-25T00:04:09;5.40;;;4.43;;
37231;SDS011;23125;48.156;15.954;2022-08-25T00:06:38;9.95;;;5.10;;
37231;SDS011;23125;48.156;15.954;2022-08-25T00:09:06;6.50;;;4.57;;
37231;SDS011;23125;48.156;15.954;2022-08-25T00:11:34;6.45;;;4.53;;
37231;SDS011;23125;48.156;15.954;2022-08-25T00:14:03;6.87;;;4.33;;
37231;SDS011;23125;48.156;15.954;2022-08-25T00:16:33;6.82;;;4.00;;
37231;SDS011;23125;48.156;15.954;2022-08-25T00:19:02;7.13;;;4.25;;
37231;SDS011;23125;48.156;15.954;2022-08-25T00:21:31;9.48;;;5.10;;
37231;SDS011;23125;48.156;15.954;2022-08-25T00:23:58;9.52;;;4.78;;
37231;SDS011;23125;48.156;15.954;2022-08-25T00:26:27;6.33;;;4.30;;
37231;SDS011;23125;48.156;15.954;2022-08-25T00:28:53;6.93;;;4.57;;
37231;SDS011;23125;48.156;15.954;2022-08-25T00:31:20;6.07;;;4.10;;
37231;SDS011;23125;48.156;15.954;2022-08-25T00:33:47;8.52;;;5.05;;
37231;SDS011;23125;48.156;15.954;2022-08-25T00:36:15;6.05;;;4.72;;
37231;SDS011;23125;48.156;15.954;2022-08-25T00:38:43;6.70;;;4.75;;
37231;SDS011;23125;48.156;15.954;2022-08-25T00:41:11;6.30;;;4.57;;
37231;SDS011;23125;48.156;15.954;2022-08-25T00:46:08;7.05;;;4.35;;
37231;SDS011;23125;48.156;15.954;2022-08-25T00:48:36;6.82;;;4.82;;
37231;SDS011;23125;48.156;15.954;2022-08-25T00:51:06;5.95;;;3.75;;
37231;SDS011;23125;48.156;15.954;2022-08-25T00:53:33;9.05;;;4.15;;
37231;SDS011;23125;48.156;15.954;2022-08-25T00:56:00;7.82;;;4.47;;
37231;SDS011;23125;48.156;15.954;2022-08-25T00:58:27;5.15;;;4.22;;
37231;SDS011;23125;48.156;15.954;2022-08-25T01:00:55;6.55;;;4.32;;
37231;SDS011;23125;48.156;15.954;2022-08-25T01:03:23;7.60;;;4.75;;
37231;SDS011;23125;48.156;15.954;2022-08-25T01:05:51;7.50;;;4.10;;
37231;SDS011;23125;48.156;15.954;2022-08-25T01:08:20;5.47;;;4.13;;
37231;SDS011;23125;48.156;15.954;2022-08-25T01:10:51;9.05;;;5.00;;
37231;SDS011;23125;48.156;15.954;2022-08-25T01:13:19;7.95;;;4.45;;
37231;SDS011;23125;48.156;15.954;2022-08-25T01:15:51;8.45;;;5.15;;
37231;SDS011;23125;48.156;15.954;2022-08-25T01:18:20;7.10;;;4.65;;
37231;SDS011;23125;48.156;15.954;2022-08-25T01:20:48;5.70;;;4.28;;
37231;SDS011;23125;48.156;15.954;2022-08-25T01:23:18;6.10;;;4.28;;
37231;SDS011;23125;48.156;15.954;2022-08-25T01:25:57;4.55;;;4.10;;
37231;SDS011;23125;48.156;15.954;2022-08-25T01:28:28;6.50;;;4.75;;
37231;SDS011;23125;48.156;15.954;2022-08-25T01:30:55;7.18;;;5.30;;
37231;SDS011;23125;48.156;15.954;2022-08-25T01:33:21;5.93;;;4.95;;
37231;SDS011;23125;48.156;15.954;2022-08-25T01:35:47;9.27;;;5.13;;
37231;SDS011;23125;48.156;15.954;2022-08-25T01:38:13;7.28;;;4.78;;
37231;SDS011;23125;48.156;15.954;2022-08-25T01:40:40;7.43;;;4.75;;
37231;SDS011;23125;48.156;15.954;2022-08-25T01:45:37;7.75;;;4.70;;
37231;SDS011;23125;48.156;15.954;2022-08-25T01:48:06;11.00;;;5.32;;
37231;SDS011;23125;48.156;15.954;2022-08-25T01:50:33;7.63;;;4.70;;
37231;SDS011;23125;48.156;15.954;2022-08-25T01:53:01;6.55;;;4.95;;
37231;SDS011;23125;48.156;15.954;2022-08-25T01:55:32;6.00;;;5.07;;
37231;SDS011;23125;48.156;15.954;2022-08-25T01:58:16;5.28;;;4.70;;
37231;SDS011;23125;48.156;15.954;2022-08-25T02:00:45;7.25;;;5.03;;
37231;SDS011;23125;48.156;15.954;2022-08-25T02:03:15;6.22;;;4.97;;
37231;SDS011;23125;48.156;15.954;2022-08-25T02:05:43;8.55;;;5.05;;
37231;SDS011;23125;48.156;15.954;2022-08-25T02:08:09;7.43;;;4.50;;
37231;SDS011;23125;48.156;15.954;2022-08-25T02:10:36;6.63;;;5.07;;
37231;SDS011;23125;48.156;15.954;2022-08-25T02:13:03;9.07;;;5.47;;
37231;SDS011;23125;48.156;15.954;2022-08-25T02:15:30;6.68;;;4.85;;
37231;SDS011;23125;48.156;15.954;2022-08-25T02:17:56;5.68;;;4.80;;
37231;SDS011;23125;48.156;15.954;2022-08-25T02:20:23;5.93;;;5.10;;
37231;SDS011;23125;48.156;15.954;2022-08-25T02:22:49;5.93;;;4.40;;
37231;SDS011;23125;48.156;15.954;2022-08-25T02:25:16;9.10;;;4.03;;
37231;SDS011;23125;48.156;15.954;2022-08-25T02:27:43;9.60;;;4.97;;
37231;SDS011;23125;48.156;15.954;2022-08-25T02:30:10;6.00;;;4.30;;
37231;SDS011;23125;48.156;15.954;2022-08-25T02:32:40;8.02;;;5.07;;
37231;SDS011;23125;48.156;15.954;2022-08-25T02:35:07;6.43;;;4.97;;
37231;SDS011;23125;48.156;15.954;2022-08-25T02:37:34;6.95;;;4.50;;
37231;SDS011;23125;48.156;15.954;2022-08-25T02:40:00;6.60;;;4.72;;
37231;SDS011;23125;48.156;15.954;2022-08-25T02:42:27;8.05;;;5.50;;
37231;SDS011;23125;48.156;15.954;2022-08-25T02:44:53;7.78;;;4.93;;
37231;SDS011;23125;48.156;15.954;2022-08-25T02:47:19;5.43;;;4.32;;
37231;SDS011;23125;48.156;15.954;2022-08-25T02:49:46;7.22;;;4.68;;
37231;SDS011;23125;48.156;15.954;2022-08-25T02:52:13;10.13;;;4.80;;
37231;SDS011;23125;48.156;15.954;2022-08-25T02:54:40;10.27;;;4.80;;
37231;SDS011;23125;48.156;15.954;2022-08-25T02:57:06;9.45;;;5.28;;
37231;SDS011;23125;48.156;15.954;2022-08-25T02:59:32;7.13;;;4.25;;
37231;SDS011;23125;48.156;15.954;2022-08-25T03:01:59;7.85;;;5.00;;
37231;SDS011;23125;48.156;15.954;2022-08-25T03:04:25;8.57;;;5.00;;
37231;SDS011;23125;48.156;15.954;2022-08-25T03:06:53;8.98;;;5.60;;
37231;SDS011;23125;48.156;15.954;2022-08-25T03:09:19;7.57;;;4.97;;
37231;SDS011;23125;48.156;15.954;2022-08-25T03:11:45;9.13;;;5.07;;
37231;SDS011;23125;48.156;15.954;2022-08-25T03:14:11;10.38;;;5.35;;
37231;SDS011;23125;48.156;15.954;2022-08-25T03:16:37;9.30;;;5.05;;
37231;SDS011;23125;48.156;15.954;2022-08-25T03:19:04;7.75;;;5.38;;
37231;SDS011;23125;48.156;15.954;2022-08-25T03:21:30;7.00;;;5.10;;
37231;SDS011;23125;48.156;15.954;2022-08-25T03:23:57;7.88;;;4.95;;
37231;SDS011;23125;48.156;15.954;2022-08-25T03:26:24;11.07;;;5.63;;
37231;SDS011;23125;48.156;15.954;2022-08-25T03:29:08;8.80;;;4.88;;
37231;SDS011;23125;48.156;15.954;2022-08-25T03:31:35;7.22;;;5.13;;
37231;SDS011;23125;48.156;15.954;2022-08-25T03:34:02;8.13;;;5.40;;
37231;SDS011;23125;48.156;15.954;2022-08-25T03:36:28;7.10;;;5.03;;
37231;SDS011;23125;48.156;15.954;2022-08-25T03:38:54;9.50;;;4.82;;
37231;SDS011;23125;48.156;15.954;2022-08-25T03:41:25;7.30;;;5.40;;
37231;SDS011;23125;48.156;15.954;2022-08-25T03:43:57;8.02;;;4.93;;
37231;SDS011;23125;48.156;15.954;2022-08-25T03:46:26;6.07;;;4.53;;
37231;SDS011;23125;48.156;15.954;2022-08-25T03:48:54;7.65;;;4.80;;
37231;SDS011;23125;48.156;15.954;2022-08-25T03:51:27;10.10;;;5.07;;
37231;SDS011;23125;48.156;15.954;2022-08-25T03:53:56;6.70;;;5.13;;
37231;SDS011;23125;48.156;15.954;2022-08-25T03:56:23;7.28;;;5.72;;
37231;SDS011;23125;48.156;15.954;2022-08-25T03:58:49;8.52;;;5.63;;
37231;SDS011;23125;48.156;15.954;2022-08-25T04:01:15;7.65;;;5.10;;
37231;SDS011;23125;48.156;15.954;2022-08-25T04:03:42;8.13;;;5.68;;
37231;SDS011;23125;48.156;15.954;2022-08-25T04:06:08;9.98;;;5.75;;
37231;SDS011;23125;48.156;15.954;2022-08-25T04:08:34;7.25;;;5.15;;
37231;SDS011;23125;48.156;15.954;2022-08-25T04:11:07;6.95;;;5.13;;
37231;SDS011;23125;48.156;15.954;2022-08-25T04:13:36;7.88;;;5.68;;
37231;SDS011;23125;48.156;15.954;2022-08-25T04:16:09;8.57;;;5.38;;
37231;SDS011;23125;48.156;15.954;2022-08-25T04:18:40;9.40;;;5.27;;
37231;SDS011;23125;48.156;15.954;2022-08-25T04:21:08;9.90;;;5.28;;
37231;SDS011;23125;48.156;15.954;2022-08-25T04:23:36;12.43;;;5.80;;
37231;SDS011;23125;48.156;15.954;2022-08-25T04:26:10;13.32;;;7.20;;
37231;SDS011;23125;48.156;15.954;2022-08-25T04:28:38;8.77;;;6.53;;
37231;SDS011;23125;48.156;15.954;2022-08-25T04:31:05;8.90;;;6.88;;
37231;SDS011;23125;48.156;15.954;2022-08-25T04:33:35;7.45;;;6.05;;
37231;SDS011;23125;48.156;15.954;2022-08-25T04:36:05;8.70;;;6.97;;
37231;SDS011;23125;48.156;15.954;2022-08-25T04:38:32;9.02;;;5.72;;
37231;SDS011;23125;48.156;15.954;2022-08-25T04:40:59;10.82;;;6.10;;
37231;SDS011;23125;48.156;15.954;2022-08-25T04:43:27;9.73;;;6.05;;
37231;SDS011;23125;48.156;15.954;2022-08-25T04:45:55;10.03;;;6.93;;
37231;SDS011;23125;48.156;15.954;2022-08-25T04:48:22;8.35;;;6.45;;
37231;SDS011;23125;48.156;15.954;2022-08-25T04:50:48;10.57;;;6.47;;
37231;SDS011;23125;48.156;15.954;2022-08-25T04:53:15;9.85;;;6.88;;
37231;SDS011;23125;48.156;15.954;2022-08-25T04:55:46;12.40;;;6.78;;
37231;SDS011;23125;48.156;15.954;2022-08-25T04:58:15;9.23;;;7.53;;
37231;SDS011;23125;48.156;15.954;2022-08-25T05:00:41;8.68;;;6.53;;
37231;SDS011;23125;48.156;15.954;2022-08-25T05:03:08;11.63;;;6.85;;
37231;SDS011;23125;48.156;15.954;2022-08-25T05:05:35;11.57;;;7.65;;
37231;SDS011;23125;48.156;15.954;2022-08-25T05:08:03;9.82;;;7.50;;
37231;SDS011;23125;48.156;15.954;2022-08-25T05:10:31;10.63;;;7.72;;
37231;SDS011;23125;48.156;15.954;2022-08-25T05:12:58;12.52;;;7.97;;
37231;SDS011;23125;48.156;15.954;2022-08-25T05:15:27;12.35;;;7.78;;
37231;SDS011;23125;48.156;15.954;2022-08-25T05:18:11;11.75;;;7.78;;
37231;SDS011;23125;48.156;15.954;2022-08-25T05:20:37;14.65;;;7.85;;
37231;SDS011;23125;48.156;15.954;2022-08-25T05:23:03;12.38;;;8.15;;
37231;SDS011;23125;48.156;15.954;2022-08-25T05:25:29;11.40;;;7.95;;
37231;SDS011;23125;48.156;15.954;2022-08-25T05:27:56;9.32;;;7.47;;
37231;SDS011;23125;48.156;15.954;2022-08-25T05:30:22;11.75;;;7.70;;
37231;SDS011;23125;48.156;15.954;2022-08-25T05:32:48;10.68;;;7.30;;
37231;SDS011;23125;48.156;15.954;2022-08-25T05:35:14;13.65;;;8.70;;
37231;SDS011;23125;48.156;15.954;2022-08-25T05:37:40;11.40;;;8.32;;
37231;SDS011;23125;48.156;15.954;2022-08-25T05:40:07;12.50;;;8.80;;
37231;SDS011;23125;48.156;15.954;2022-08-25T05:42:34;13.88;;;8.23;;
37231;SDS011;23125;48.156;15.954;2022-08-25T05:45:02;9.98;;;7.82;;
37231;SDS011;23125;48.156;15.954;2022-08-25T05:47:28;10.40;;;8.05;;
37231;SDS011;23125;48.156;15.954;2022-08-25T05:49:54;12.43;;;8.38;;
37231;SDS011;23125;48.156;15.954;2022-08-25T05:52:20;12.32;;;9.43;;
37231;SDS011;23125;48.156;15.954;2022-08-25T05:54:46;12.50;;;8.02;;
37231;SDS011;23125;48.156;15.954;2022-08-25T05:57:12;13.30;;;8.70;;
37231;SDS011;23125;48.156;15.954;2022-08-25T05:59:38;14.32;;;8.90;;
37231;SDS011;23125;48.156;15.954;2022-08-25T06:02:04;10.38;;;7.35;;
37231;SDS011;23125;48.156;15.954;2022-08-25T06:04:49;12.23;;;8.20;;
37231;SDS011;23125;48.156;15.954;2022-08-25T06:07:16;15.68;;;10.05;;
37231;SDS011;23125;48.156;15.954;2022-08-25T06:09:42;13.20;;;9.35;;
37231;SDS011;23125;48.156;15.954;2022-08-25T06:12:10;12.43;;;8.30;;
37231;SDS011;23125;48.156;15.954;2022-08-25T06:14:36;12.80;;;9.27;;
37231;SDS011;23125;48.156;15.954;2022-08-25T06:17:03;14.45;;;9.35;;
37231;SDS011;23125;48.156;15.954;2022-08-25T06:19:29;11.50;;;8.65;;
37231;SDS011;23125;48.156;15.954;2022-08-25T06:21:55;15.40;;;9.60;;
37231;SDS011;23125;48.156;15.954;2022-08-25T06:24:23;16.80;;;8.70;;
37231;SDS011;23125;48.156;15.954;2022-08-25T06:26:51;15.13;;;9.40;;
37231;SDS011;23125;48.156;15.954;2022-08-25T06:29:18;16.33;;;9.60;;
37231;SDS011;23125;48.156;15.954;2022-08-25T06:31:45;15.68;;;9.57;;
37231;SDS011;23125;48.156;15.954;2022-08-25T06:34:11;16.38;;;10.25;;
37231;SDS011;23125;48.156;15.954;2022-08-25T06:36:38;11.93;;;9.23;;
37231;SDS011;23125;48.156;15.954;2022-08-25T06:39:04;15.02;;;9.25;;
37231;SDS011;23125;48.156;15.954;2022-08-25T06:41:31;12.68;;;8.75;;
37231;SDS011;23125;48.156;15.954;2022-08-25T06:43:57;14.23;;;9.40;;
37231;SDS011;23125;48.156;15.954;2022-08-25T06:46:24;16.00;;;9.23;;
37231;SDS011;23125;48.156;15.954;2022-08-25T06:48:52;12.98;;;9.35;;
37231;SDS011;23125;48.156;15.954;2022-08-25T06:51:19;13.45;;;8.90;;
37231;SDS011;23125;48.156;15.954;2022-08-25T06:53:47;14.50;;;9.45;;
37231;SDS011;23125;48.156;15.954;2022-08-25T06:56:14;13.23;;;8.82;;
37231;SDS011;23125;48.156;15.954;2022-08-25T06:58:42;15.77;;;9.15;;
37231;SDS011;23125;48.156;15.954;2022-08-25T07:01:09;16.73;;;9.40;;
37231;SDS011;23125;48.156;15.954;2022-08-25T07:03:40;14.82;;;9.05;;
37231;SDS011;23125;48.156;15.954;2022-08-25T07:06:07;14.10;;;9.77;;
37231;SDS011;23125;48.156;15.954;2022-08-25T07:08:33;15.63;;;9.60;;
37231;SDS011;23125;48.156;15.954;2022-08-25T07:11:07;13.00;;;9.27;;
37231;SDS011;23125;48.156;15.954;2022-08-25T07:13:34;11.95;;;9.43;;
37231;SDS011;23125;48.156;15.954;2022-08-25T07:16:02;12.18;;;9.68;;
37231;SDS011;23125;48.156;15.954;2022-08-25T07:18:30;14.32;;;9.63;;
37231;SDS011;23125;48.156;15.954;2022-08-25T07:20:57;15.02;;;9.63;;
37231;SDS011;23125;48.156;15.954;2022-08-25T07:23:23;13.52;;;9.15;;
37231;SDS011;23125;48.156;15.954;2022-08-25T07:25:50;12.93;;;8.75;;
37231;SDS011;23125;48.156;15.954;2022-08-25T07:28:19;16.20;;;10.10;;
37231;SDS011;23125;48.156;15.954;2022-08-25T07:30:46;15.30;;;10.10;;
37231;SDS011;23125;48.156;15.954;2022-08-25T07:33:12;15.68;;;10.93;;
37231;SDS011;23125;48.156;15.954;2022-08-25T07:35:38;19.30;;;10.98;;
37231;SDS011;23125;48.156;15.954;2022-08-25T07:38:05;16.38;;;9.85;;
37231;SDS011;23125;48.156;15.954;2022-08-25T07:40:33;17.05;;;11.13;;
37231;SDS011;23125;48.156;15.954;2022-08-25T07:43:02;16.77;;;10.35;;
37231;SDS011;23125;48.156;15.954;2022-08-25T07:45:32;15.27;;;10.18;;
37231;SDS011;23125;48.156;15.954;2022-08-25T07:48:01;19.27;;;10.00;;
37231;SDS011;23125;48.156;15.954;2022-08-25T07:50:30;19.67;;;10.25;;
37231;SDS011;23125;48.156;15.954;2022-08-25T07:52:57;16.75;;;10.23;;
37231;SDS011;23125;48.156;15.954;2022-08-25T07:55:24;18.65;;;10.55;;
37231;SDS011;23125;48.156;15.954;2022-08-25T07:57:51;20.90;;;11.32;;
37231;SDS011;23125;48.156;15.954;2022-08-25T08:00:18;21.95;;;11.57;;
37231;SDS011;23125;48.156;15.954;2022-08-25T08:02:44;17.23;;;10.40;;
37231;SDS011;23125;48.156;15.954;2022-08-25T08:05:11;20.90;;;11.23;;
37231;SDS011;23125;48.156;15.954;2022-08-25T08:07:38;19.20;;;11.52;;
37231;SDS011;23125;48.156;15.954;2022-08-25T08:10:06;18.77;;;11.10;;
37231;SDS011;23125;48.156;15.954;2022-08-25T08:12:33;18.57;;;10.87;;
37231;SDS011;23125;48.156;15.954;2022-08-25T08:15:00;18.67;;;10.65;;
37231;SDS011;23125;48.156;15.954;2022-08-25T08:17:27;21.55;;;11.43;;
37231;SDS011;23125;48.156;15.954;2022-08-25T08:19:53;18.55;;;10.75;;
37231;SDS011;23125;48.156;15.954;2022-08-25T08:22:19;23.65;;;12.93;;
37231;SDS011;23125;48.156;15.954;2022-08-25T08:24:45;17.90;;;10.95;;
37231;SDS011;23125;48.156;15.954;2022-08-25T08:27:12;17.45;;;10.18;;
37231;SDS011;23125;48.156;15.954;2022-08-25T08:29:38;20.38;;;10.00;;
37231;SDS011;23125;48.156;15.954;2022-08-25T08:32:06;18.00;;;10.70;;
37231;SDS011;23125;48.156;15.954;2022-08-25T08:34:35;13.90;;;10.13;;
37231;SDS011;23125;48.156;15.954;2022-08-25T08:37:02;17.08;;;10.27;;
37231;SDS011;23125;48.156;15.954;2022-08-25T08:39:29;16.60;;;10.65;;
37231;SDS011;23125;48.156;15.954;2022-08-25T08:47:53;11.20;;;8.55;;
37231;SDS011;23125;48.156;15.954;2022-08-25T08:53:48;13.23;;;8.88;;
37231;SDS011;23125;48.156;15.954;2022-08-25T08:59:45;15.85;;;10.00;;
37231;SDS011;23125;48.156;15.954;2022-08-25T09:05:02;20.77;;;11.45;;
37231;SDS011;23125;48.156;15.954;2022-08-25T09:07:39;18.60;;;10.35;;
37231;SDS011;23125;48.156;15.954;2022-08-25T09:10:09;20.10;;;12.48;;
37231;SDS011;23125;48.156;15.954;2022-08-25T09:13:21;18.38;;;10.98;;
37231;SDS011;23125;48.156;15.954;2022-08-25T09:15:48;20.83;;;11.60;;
37231;SDS011;23125;48.156;15.954;2022-08-25T09:19:10;20.30;;;12.73;;
37231;SDS011;23125;48.156;15.954;2022-08-25T09:21:44;24.80;;;12.75;;
37231;SDS011;23125;48.156;15.954;2022-08-25T09:27:40;21.35;;;13.15;;
37231;SDS011;23125;48.156;15.954;2022-08-25T09:30:16;22.48;;;11.88;;
37231;SDS011;23125;48.156;15.954;2022-08-25T09:32:48;20.60;;;12.43;;
37231;SDS011;23125;48.156;15.954;2022-08-25T09:35:19;19.02;;;11.52;;
37231;SDS011;23125;48.156;15.954;2022-08-25T09:38:21;18.80;;;11.48;;
37231;SDS011;23125;48.156;15.954;2022-08-25T09:40:41;20.80;;;11.75;;
37231;SDS011;23125;48.156;15.954;2022-08-25T09:46:08;15.32;;;10.93;;
37231;SDS011;23125;48.156;15.954;2022-08-25T09:48:44;18.88;;;10.48;;
37231;SDS011;23125;48.156;15.954;2022-08-25T09:54:01;15.40;;;10.48;;
37231;SDS011;23125;48.156;15.954;2022-08-25T09:56:55;16.30;;;11.20;;
37231;SDS011;23125;48.156;15.954;2022-08-25T10:04:55;16.88;;;9.90;;
37231;SDS011;23125;48.156;15.954;2022-08-25T10:09:54;18.90;;;9.73;;
37231;SDS011;23125;48.156;15.954;2022-08-25T10:12:38;16.35;;;10.32;;
37231;SDS011;23125;48.156;15.954;2022-08-25T10:17:41;16.67;;;10.65;;
37231;SDS011;23125;48.156;15.954;2022-08-25T10:22:39;14.15;;;8.73;;
37231;SDS011;23125;48.156;15.954;2022-08-25T10:25:08;18.27;;;9.32;;
37231;SDS011;23125;48.156;15.954;2022-08-25T10:30:21;16.45;;;9.70;;
37231;SDS011;23125;48.156;15.954;2022-08-25T10:35:58;14.07;;;9.15;;
37231;SDS011;23125;48.156;15.954;2022-08-25T10:38:42;14.85;;;9.57;;
37231;SDS011;23125;48.156;15.954;2022-08-25T10:47:18;15.30;;;9.90;;
37231;SDS011;23125;48.156;15.954;2022-08-25T10:49:49;15.95;;;9.85;;
37231;SDS011;23125;48.156;15.954;2022-08-25T10:55:19;16.35;;;9.68;;
37231;SDS011;23125;48.156;15.954;2022-08-25T10:57:57;16.10;;;10.10;;
37231;SDS011;23125;48.156;15.954;2022-08-25T11:00:52;12.60;;;8.80;;
37231;SDS011;23125;48.156;15.954;2022-08-25T11:03:34;15.40;;;9.82;;
37231;SDS011;23125;48.156;15.954;2022-08-25T11:06:13;12.50;;;8.73;;
37231;SDS011;23125;48.156;15.954;2022-08-25T11:08:51;19.25;;;9.55;;
37231;SDS011;23125;48.156;15.954;2022-08-25T11:14:21;12.55;;;8.80;;
37231;SDS011;23125;48.156;15.954;2022-08-25T11:17:17;14.27;;;9.60;;
37231;SDS011;23125;48.156;15.954;2022-08-25T11:19:51;13.82;;;7.95;;
37231;SDS011;23125;48.156;15.954;2022-08-25T11:22:23;14.75;;;8.95;;
37231;SDS011;23125;48.156;15.954;2022-08-25T11:30:24;17.27;;;9.40;;
37231;SDS011;23125;48.156;15.954;2022-08-25T11:32:51;14.20;;;9.02;;
37231;SDS011;23125;48.156;15.954;2022-08-25T11:35:28;17.40;;;9.47;;
37231;SDS011;23125;48.156;15.954;2022-08-25T11:38:14;14.25;;;9.05;;
37231;SDS011;23125;48.156;15.954;2022-08-25T11:41:10;14.27;;;8.57;;
37231;SDS011;23125;48.156;15.954;2022-08-25T11:43:51;12.07;;;9.07;;
37231;SDS011;23125;48.156;15.954;2022-08-25T11:51:53;15.60;;;8.93;;
37231;SDS011;23125;48.156;15.954;2022-08-25T11:54:52;13.52;;;8.57;;
37231;SDS011;23125;48.156;15.954;2022-08-25T12:10:51;13.05;;;8.23;;
37231;SDS011;23125;48.156;15.954;2022-08-25T12:13:25;14.20;;;8.65;;
37231;SDS011;23125;48.156;15.954;2022-08-25T12:22:37;14.65;;;8.23;;
37231;SDS011;23125;48.156;15.954;2022-08-25T12:33:07;12.55;;;8.02;;
37231;SDS011;23125;48.156;15.954;2022-08-25T12:35:48;12.40;;;7.78;;
37231;SDS011;23125;48.156;15.954;2022-08-25T12:38:45;11.35;;;7.75;;
37231;SDS011;23125;48.156;15.954;2022-08-25T12:41:23;14.45;;;7.72;;
37231;SDS011;23125;48.156;15.954;2022-08-25T12:47:06;12.32;;;8.23;;
37231;SDS011;23125;48.156;15.954;2022-08-25T12:53:06;12.50;;;7.35;;
37231;SDS011;23125;48.156;15.954;2022-08-25T12:55:45;14.68;;;7.28;;
37231;SDS011;23125;48.156;15.954;2022-08-25T12:58:14;10.45;;;7.43;;
37231;SDS011;23125;48.156;15.954;2022-08-25T13:06:17;12.15;;;7.65;;
37231;SDS011;23125;48.156;15.954;2022-08-25T13:09:16;13.57;;;7.90;;
37231;SDS011;23125;48.156;15.954;2022-08-25T13:12:13;12.45;;;7.28;;
37231;SDS011;23125;48.156;15.954;2022-08-25T13:14:53;13.00;;;7.07;;
37231;SDS011;23125;48.156;15.954;2022-08-25T13:17:28;13.68;;;7.18;;
37231;SDS011;23125;48.156;15.954;2022-08-25T13:22:38;10.85;;;7.10;;
37231;SDS011;23125;48.156;15.954;2022-08-25T13:25:05;8.63;;;7.03;;
37231;SDS011;23125;48.156;15.954;2022-08-25T13:27:38;10.75;;;7.20;;
37231;SDS011;23125;48.156;15.954;2022-08-25T13:30:05;9.05;;;7.80;;
37231;SDS011;23125;48.156;15.954;2022-08-25T13:32:32;12.02;;;7.07;;
37231;SDS011;23125;48.156;15.954;2022-08-25T13:35:07;10.32;;;7.65;;
37231;SDS011;23125;48.156;15.954;2022-08-25T13:37:44;10.82;;;7.18;;
37231;SDS011;23125;48.156;15.954;2022-08-25T13:40:14;10.40;;;7.50;;
37231;SDS011;23125;48.156;15.954;2022-08-25T13:42:49;10.93;;;7.15;;
37231;SDS011;23125;48.156;15.954;2022-08-25T13:45:20;10.35;;;6.78;;
37231;SDS011;23125;48.156;15.954;2022-08-25T13:47:52;13.18;;;7.45;;
37231;SDS011;23125;48.156;15.954;2022-08-25T13:55:28;10.43;;;6.35;;
37231;SDS011;23125;48.156;15.954;2022-08-25T13:58:01;10.07;;;7.18;;
37231;SDS011;23125;48.156;15.954;2022-08-25T14:00:33;11.43;;;7.35;;
37231;SDS011;23125;48.156;15.954;2022-08-25T14:03:16;11.18;;;7.30;;
37231;SDS011;23125;48.156;15.954;2022-08-25T14:08:34;13.75;;;7.65;;
37231;SDS011;23125;48.156;15.954;2022-08-25T14:11:07;10.10;;;6.97;;
37231;SDS011;23125;48.156;15.954;2022-08-25T14:13:39;12.32;;;6.55;;
37231;SDS011;23125;48.156;15.954;2022-08-25T14:18:46;10.02;;;6.38;;
37231;SDS011;23125;48.156;15.954;2022-08-25T14:21:30;10.73;;;6.78;;
37231;SDS011;23125;48.156;15.954;2022-08-25T14:23:57;8.02;;;6.93;;
37231;SDS011;23125;48.156;15.954;2022-08-25T14:26:24;10.23;;;7.38;;
37231;SDS011;23125;48.156;15.954;2022-08-25T14:28:50;12.48;;;7.30;;
37231;SDS011;23125;48.156;15.954;2022-08-25T14:31:26;9.25;;;6.95;;
37231;SDS011;23125;48.156;15.954;2022-08-25T14:34:03;9.83;;;6.87;;
37231;SDS011;23125;48.156;15.954;2022-08-25T14:36:32;11.45;;;6.57;;
37231;SDS011;23125;48.156;15.954;2022-08-25T14:38:59;11.43;;;7.15;;
37231;SDS011;23125;48.156;15.954;2022-08-25T14:41:30;10.27;;;6.78;;
37231;SDS011;23125;48.156;15.954;2022-08-25T14:43:59;9.98;;;7.13;;
37231;SDS011;23125;48.156;15.954;2022-08-25T14:46:26;10.57;;;6.75;;
37231;SDS011;23125;48.156;15.954;2022-08-25T14:48:55;9.48;;;7.18;;
37231;SDS011;23125;48.156;15.954;2022-08-25T14:51:24;11.00;;;7.10;;
37231;SDS011;23125;48.156;15.954;2022-08-25T14:53:52;11.13;;;7.33;;
37231;SDS011;23125;48.156;15.954;2022-08-25T14:56:23;13.93;;;7.78;;
37231;SDS011;23125;48.156;15.954;2022-08-25T14:58:49;10.32;;;7.38;;
37231;SDS011;23125;48.156;15.954;2022-08-25T15:01:15;10.55;;;7.15;;
37231;SDS011;23125;48.156;15.954;2022-08-25T15:03:44;10.98;;;7.18;;
37231;SDS011;23125;48.156;15.954;2022-08-25T15:06:14;12.05;;;7.60;;
37231;SDS011;23125;48.156;15.954;2022-08-25T15:08:41;11.07;;;7.55;;
37231;SDS011;23125;48.156;15.954;2022-08-25T15:11:26;10.48;;;7.60;;
37231;SDS011;23125;48.156;15.954;2022-08-25T15:13:54;10.43;;;7.22;;
37231;SDS011;23125;48.156;15.954;2022-08-25T15:16:23;11.63;;;7.30;;
37231;SDS011;23125;48.156;15.954;2022-08-25T15:18:53;10.73;;;7.30;;
37231;SDS011;23125;48.156;15.954;2022-08-25T15:21:20;9.95;;;6.97;;
37231;SDS011;23125;48.156;15.954;2022-08-25T15:23:47;10.40;;;6.90;;
37231;SDS011;23125;48.156;15.954;2022-08-25T15:26:13;12.73;;;7.80;;
37231;SDS011;23125;48.156;15.954;2022-08-25T15:28:42;10.10;;;6.95;;
37231;SDS011;23125;48.156;15.954;2022-08-25T15:31:12;12.40;;;6.60;;
37231;SDS011;23125;48.156;15.954;2022-08-25T15:33:39;12.73;;;6.88;;
37231;SDS011;23125;48.156;15.954;2022-08-25T15:36:09;11.32;;;7.00;;
37231;SDS011;23125;48.156;15.954;2022-08-25T15:38:40;9.00;;;6.85;;
37231;SDS011;23125;48.156;15.954;2022-08-25T15:41:10;10.80;;;6.82;;
37231;SDS011;23125;48.156;15.954;2022-08-25T15:43:36;9.93;;;7.15;;
37231;SDS011;23125;48.156;15.954;2022-08-25T15:46:03;10.20;;;6.80;;
37231;SDS011;23125;48.156;15.954;2022-08-25T15:48:31;8.30;;;6.70;;
37231;SDS011;23125;48.156;15.954;2022-08-25T15:50:57;7.88;;;5.32;;
37231;SDS011;23125;48.156;15.954;2022-08-25T15:53:25;9.50;;;5.47;;
37231;SDS011;23125;48.156;15.954;2022-08-25T15:55:54;9.60;;;6.05;;
37231;SDS011;23125;48.156;15.954;2022-08-25T15:58:23;8.43;;;5.60;;
37231;SDS011;23125;48.156;15.954;2022-08-25T16:00:49;9.18;;;5.65;;
37231;SDS011;23125;48.156;15.954;2022-08-25T16:03:15;6.65;;;4.93;;
37231;SDS011;23125;48.156;15.954;2022-08-25T16:05:43;10.10;;;5.63;;
37231;SDS011;23125;48.156;15.954;2022-08-25T16:08:09;7.47;;;5.03;;
37231;SDS011;23125;48.156;15.954;2022-08-25T16:10:36;14.85;;;5.03;;
37231;SDS011;23125;48.156;15.954;2022-08-25T16:13:05;7.25;;;5.10;;
37231;SDS011;23125;48.156;15.954;2022-08-25T16:15:32;11.07;;;5.60;;
37231;SDS011;23125;48.156;15.954;2022-08-25T16:18:00;8.57;;;5.35;;
37231;SDS011;23125;48.156;15.954;2022-08-25T16:20:28;9.25;;;4.82;;
37231;SDS011;23125;48.156;15.954;2022-08-25T16:22:56;9.87;;;5.67;;
37231;SDS011;23125;48.156;15.954;2022-08-25T16:25:25;8.80;;;5.88;;
37231;SDS011;23125;48.156;15.954;2022-08-25T16:27:52;8.77;;;5.53;;
37231;SDS011;23125;48.156;15.954;2022-08-25T16:30:18;7.43;;;5.38;;
37231;SDS011;23125;48.156;15.954;2022-08-25T16:32:44;9.07;;;5.63;;
37231;SDS011;23125;48.156;15.954;2022-08-25T16:35:11;6.50;;;5.20;;
37231;SDS011;23125;48.156;15.954;2022-08-25T16:37:37;10.68;;;5.72;;
37231;SDS011;23125;48.156;15.954;2022-08-25T16:40:05;7.15;;;5.03;;
37231;SDS011;23125;48.156;15.954;2022-08-25T16:42:31;8.13;;;5.78;;
37231;SDS011;23125;48.156;15.954;2022-08-25T16:44:58;7.70;;;5.88;;
37231;SDS011;23125;48.156;15.954;2022-08-25T16:47:24;7.63;;;5.45;;